EDDS

Stuttgart Airport

Stuttgart, Germany
TAF EDDS 221700Z 2218/2318 VRB03KT 9999 SCT045 TEMPO 2221/2305 4000 BR PROB30 TEMPO 2223/2304 0200 FG BKN001 TEMPO 2311/2318 36005KT
Issued Valid From Valid To
Jul-22 @ 17:00 UTC
(3 hours ago)
Jul-22 @ 18:00 UTC
(2 hours ago)
Jul-23 @ 18:00 UTC
(in 22 hours)
Jul-22 @ 18:00 to Jul-23 @ 18:00
TAF EDDS 221700Z 2218/2318 VRB03KT 9999 SCT045
Wind Visibility Clouds
Variable at 3 knots 10,000+ meters
  • Scattered at 4,500' AGL
Temporary Jul-22 @ 21:00 to Jul-23 @ 05:00
TEMPO 2221/2305 4000 BR
Visibility Conditions
4,007 meters
  • Mist
Temporary  (Probability 30%) Jul-22 @ 23:00 to Jul-23 @ 04:00
PROB30 TEMPO 2223/2304 0200 FG BKN001
Visibility Clouds Conditions
193 meters
  • Broken at 100' AGL
  • Fog
Temporary Jul-23 @ 11:00 to Jul-23 @ 18:00
TEMPO 2311/2318 36005KT
Wind
360° at 5 knots
TAF EDDS 221700Z 2218/2318 VRB03KT 9999 SCT045 TEMPO 2221/2305 4000 BR PROB30 TEMPO 2223/2304 0200 FG BKN001 TEMPO 2311/2318 36005KT
Issued Jul-22 @ 17:00 UTC
(3 hours ago)
Valid From Jul-22 @ 18:00 UTC
(2 hours ago)
Valid To Jul-23 @ 18:00 UTC
(in 22 hours)
Jul-22 @ 18:00 - Jul-23 @ 18:00
Wind Visibility
Variable at 3 knots 10,000+ meters
Clouds
  • Scattered at 4,500' AGL
Temporary Jul-22 @ 21:00 - Jul-23 @ 05:00
Conditions
  • Mist
Probability 30% Temporary Jul-22 @ 23:00 - Jul-23 @ 04:00
Clouds
  • Broken at 100' AGL
Conditions
  • Fog
Temporary Jul-23 @ 11:00 - Jul-23 @ 18:00
Wind
360° at 5 knots